Gulf Breeze, FL (32561)

1:53 PM CDT on September 30, 2016 (GMT -0500)
Woodlawn Beach Middle School WeatherSTEM | | Change Station

Elev 42 ft 30.39 °N, 87.01 °W | Updated 2 minutes ago

Clear
Clear
78.1 °F
Feels Like 79 °F
N
5.0
Wind Variable Wind from WNW

Today
High -- | Low -- °F
--% Chance of Precip.
Yesterday
High -- | Low -- °F
Precip. -- in
Pressure 30.08 in
Visibility 10.0 miles
Clouds Clear
Heat Index 79 °F
Dew Point 54 °F
Humidity 44%
Rainfall 0.00 in
Snow Depth Not available.
6:41 AM 6:33 PM
Waning Crescent, 0% visible
METAR KPNS 301753Z 33008KT 10SM CLR 26/11 A3007 RMK AO2 SLP184 T02610106 10261 20150 58014
Pressure 30.08 in
Visibility 10.0 miles
Clouds Clear
Heat Index 79 °F
Dew Point 54 °F
Humidity 44%
Rainfall 0.00 in
Snow Depth Not available.
6:41 AM 6:33 PM
Waning Crescent, 0% visible
METAR KPNS 301753Z 33008KT 10SM CLR 26/11 A3007 RMK AO2 SLP184 T02610106 10261 20150 58014

10-Day Weather Forecast

Almanac

Astronomy

Sep. 30, 2016 Rise Set
Actual Time
Civil Twilight
Nautical Twilight
Astronomical Twilight
Moon
Length of Visible Light
Length of Day
Tomorrow will be .
, % of the Moon is Illuminated

Today's Extremes

State Highs State Lows

Community

WunderPhotos

Upload Photos

1,942,755 photos uploaded!

WunderBlog® & News

Nearby

Air Quality

  Air Quality AQ Index Pollutant
Not available.

Snow Depth

Station Depth Elevation

Earthquake Activity

City Distance Mag. Time & Date
Minimum magnitude displayed is 2.5.

Coastal Water Temperatures

Place Temperature

Stations

Nearby Weather Stations

Station Location Temp. Windchill Dew Point Humidity Wind Precip. Elev Updated Type
                   

Watches & Warnings

There are currently no watches in effect.